»·PEaware :: BADGR13 KGEG-KSEA

BADGR13 :: KGEG-KSEA

FLIGHT INFORMATION

Flight Status: Arrived
Operator: Unknown
More flights by this operator :: More flights under this callsign
Pilot: Abraham G. (22221)
Aircraft: BEECH AIRCRAFT T-6A TEXAN
(TEX2)
More flights by this aircraft type
Origin: KGEG Spokane Intl
United States
Destination: KSEA Seattle-Tacoma Intl
United States
More flights between these airports :: More routes between these airports
Route: +GEG6 GEG GLASR1
File this flight plan on PilotEdge
Remarks:
Altitude:
(Current/Filed)
20,000ft
Speed:
(Current/Filed)
250kts
Departed: 17-Jun-20 06:55 AM
Arrived: 17-Jun-20 07:44 AM
Distance/Time
Traveled:
193nm/0:48
Distance/Time
To Go:
Arrived

Flight Plot

Page will automatically refresh every two minutes.

Flight plan parsing failed; only flown route is shown


Map Options




Map Legend


Flown Route
Filed Route
Departure Airport
Arrival Airport
Navaid (VOR, NDB)
Fix

Horizontal Profiles

Position Reports

Time Latitude Longitude Heading Altitude Ground
Speed
17-Jun-20 06:25 47.623773 -117.524485 268 2351ft 0kts
17-Jun-20 06:26 47.623773 -117.524485 268 2351ft 0kts
17-Jun-20 06:27 47.623773 -117.524485 268 2351ft 0kts
17-Jun-20 06:28 47.623773 -117.524485 268 2351ft 0kts
17-Jun-20 06:29 47.623773 -117.524485 268 2351ft 0kts
17-Jun-20 06:30 47.623773 -117.524485 268 2351ft 0kts
17-Jun-20 06:31 47.623773 -117.524485 268 2351ft 0kts
17-Jun-20 06:32 47.623773 -117.524485 268 2351ft 0kts
17-Jun-20 06:33 47.623773 -117.524485 268 2351ft 0kts
17-Jun-20 06:34 47.623773 -117.524485 268 2351ft 0kts
17-Jun-20 06:35 47.623773 -117.524485 268 2351ft 0kts
17-Jun-20 06:36 47.623773 -117.524485 268 2351ft 0kts
17-Jun-20 06:37 47.623773 -117.524485 268 2351ft 0kts
17-Jun-20 06:38 47.623773 -117.524485 268 2351ft 0kts
17-Jun-20 06:39 47.623773 -117.524485 268 2351ft 0kts
17-Jun-20 06:40 47.623773 -117.524485 268 2351ft 0kts
17-Jun-20 06:41 47.623773 -117.524485 268 2351ft 0kts
17-Jun-20 06:42 47.623773 -117.524485 268 2351ft 0kts
17-Jun-20 06:43 47.623773 -117.524485 268 2351ft 0kts
17-Jun-20 06:44 47.623773 -117.524485 268 2351ft 0kts
17-Jun-20 06:45 47.623773 -117.524485 268 2351ft 0kts
17-Jun-20 06:46 47.623773 -117.524485 268 2351ft 0kts
17-Jun-20 06:47 47.624615 -117.524689 39 2348ft 14kts
17-Jun-20 06:48 47.627967 -117.519689 41 2338ft 19kts
17-Jun-20 06:49 47.630462 -117.517383 312 2323ft 0kts
17-Jun-20 06:50 47.630462 -117.517383 312 2323ft 0kts
17-Jun-20 06:51 47.630476 -117.517404 313 2323ft 0kts
17-Jun-20 06:52 47.630478 -117.517408 313 2323ft 0kts
17-Jun-20 06:53 47.631044 -117.518507 237 2324ft 7kts
17-Jun-20 06:54 47.608729 -117.552029 227 3922ft 164kts
17-Jun-20 06:55 47.571211 -117.602052 226 6099ft 220kts
17-Jun-20 06:56 47.533788 -117.668989 250 8898ft 218kts
17-Jun-20 06:57 47.554778 -117.752128 297 11476ft 224kts
17-Jun-20 06:58 47.575893 -117.848656 275 11843ft 286kts
17-Jun-20 06:59 47.583026 -117.953734 274 14937ft 236kts
17-Jun-20 07:00 47.590905 -118.055372 276 17043ft 252kts
17-Jun-20 07:01 47.596631 -118.158823 276 18907ft 256kts
17-Jun-20 07:02 47.603201 -118.265808 274 19944ft 273kts
17-Jun-20 07:03 47.606858 -118.382250 274 20236ft 288kts
17-Jun-20 07:04 47.615996 -118.505826 275 19913ft 298kts
17-Jun-20 07:05 47.626184 -118.627801 277 19851ft 298kts
17-Jun-20 07:06 47.636612 -118.748689 277 19854ft 297kts
17-Jun-20 07:07 47.648551 -118.869758 279 19832ft 296kts
17-Jun-20 07:08 47.663898 -118.989895 281 19854ft 296kts
17-Jun-20 07:09 47.683856 -119.108258 286 19877ft 292kts
17-Jun-20 07:10 47.694317 -119.228997 276 19893ft 295kts
17-Jun-20 07:11 47.706845 -119.350508 279 19877ft 296kts
17-Jun-20 07:12 47.717152 -119.476290 276 19763ft 299kts
17-Jun-20 07:13 47.726728 -119.600710 277 19877ft 296kts
17-Jun-20 07:14 47.736743 -119.724719 276 19862ft 297kts
17-Jun-20 07:15 47.747030 -119.847018 277 19879ft 297kts
17-Jun-20 07:16 47.758093 -119.968783 278 19907ft 297kts
17-Jun-20 07:18 47.770355 -120.090314 280 19919ft 296kts
17-Jun-20 07:19 47.786380 -120.210637 279 19918ft 298kts
17-Jun-20 07:20 47.794889 -120.333986 275 19917ft 297kts
17-Jun-20 07:21 47.803510 -120.456194 274 19922ft 296kts
17-Jun-20 07:22 47.809484 -120.578618 273 19933ft 296kts
17-Jun-20 07:23 47.816233 -120.701738 276 19957ft 296kts
17-Jun-20 07:24 47.824864 -120.824428 275 19880ft 297kts
17-Jun-20 07:25 47.835934 -120.947152 279 19846ft 296kts
17-Jun-20 07:26 47.849293 -121.069130 277 19722ft 300kts
17-Jun-20 07:27 47.858663 -121.192311 276 19682ft 300kts
17-Jun-20 07:28 47.866267 -121.317846 273 17071ft 300kts
17-Jun-20 07:29 47.870408 -121.439796 273 14375ft 291kts
17-Jun-20 07:30 47.875116 -121.558145 275 12052ft 285kts
17-Jun-20 07:31 47.882173 -121.677338 277 9614ft 286kts
17-Jun-20 07:32 47.858428 -121.791764 241 7639ft 268kts
17-Jun-20 07:33 47.824756 -121.891124 244 7620ft 257kts
17-Jun-20 07:34 47.793001 -121.988275 245 7606ft 257kts
17-Jun-20 07:35 47.764470 -122.084574 248 7555ft 239kts
17-Jun-20 07:35 47.758446 -122.168480 265 5616ft 233kts
17-Jun-20 07:37 47.726254 -122.247781 218 3568ft 184kts
17-Jun-20 07:37 47.687127 -122.277526 191 2947ft 215kts
17-Jun-20 07:39 47.621787 -122.301101 195 2618ft 200kts
17-Jun-20 07:39 47.579889 -122.307081 181 1975ft 170kts
17-Jun-20 07:40 47.539246 -122.306623 182 1617ft 133kts
17-Jun-20 07:41 47.502822 -122.307165 182 1215ft 128kts
17-Jun-20 07:42 47.472099 -122.307672 179 667ft 95kts
17-Jun-20 07:43 47.455784 -122.307502 101 427ft 13kts
17-Jun-20 07:44 47.455251 -122.305955 15 427ft 15kts
17-Jun-20 07:45 47.456684 -122.303179 198 451ft 5kts
17-Jun-20 07:46 47.456632 -122.303330 274 450ft 0kts

Navigation Log

Ident Type
Flight plan parsing failed, navigation log unavailable